createdAt,value
2023-03-15T00:12:29.261Z,4600.02832
2023-03-15T00:27:31.501Z,1821.17798
2023-03-15T00:42:33.722Z,1526.43726
2023-03-15T00:57:35.948Z,920.94733
2023-03-15T01:12:38.190Z,713.78125
2023-03-15T01:27:40.435Z,499.08188
2023-03-15T01:42:42.773Z,226.94101
2023-03-15T01:57:45.067Z,55.55817
2023-03-15T02:12:47.292Z,5.64998
2023-03-15T02:27:49.575Z,0
2023-03-15T02:42:51.907Z,0
2023-03-15T02:57:54.204Z,0
2023-03-15T03:12:56.503Z,0
2023-03-15T03:27:58.794Z,0
2023-03-15T03:43:01.096Z,0
2023-03-15T03:58:03.305Z,0
2023-03-15T04:13:05.573Z,0
2023-03-15T04:28:07.865Z,0
2023-03-15T04:43:10.130Z,0
2023-03-15T04:58:12.460Z,0
2023-03-15T05:13:14.822Z,0
2023-03-15T05:28:17.073Z,0
2023-03-15T05:43:19.521Z,0
2023-03-15T05:58:21.855Z,0
2023-03-15T06:13:24.121Z,0
2023-03-15T06:28:26.422Z,0
2023-03-15T06:43:28.710Z,0
2023-03-15T06:58:30.971Z,0
2023-03-15T07:13:33.191Z,0
2023-03-15T07:28:35.791Z,0
2023-03-15T07:43:38.057Z,0
2023-03-15T07:58:40.313Z,0
2023-03-15T08:13:42.536Z,0
2023-03-15T08:28:44.938Z,0
2023-03-15T08:43:47.213Z,0
2023-03-15T08:58:49.468Z,0
2023-03-15T09:13:51.705Z,0
2023-03-15T09:28:53.940Z,0
2023-03-15T09:43:56.203Z,0
2023-03-15T09:58:58.630Z,0
2023-03-15T10:14:00.853Z,0
2023-03-15T10:29:03.068Z,0
2023-03-15T10:44:05.520Z,0
2023-03-15T10:59:12.716Z,0
2023-03-15T11:14:15.326Z,0
2023-03-15T11:29:17.533Z,0
2023-03-15T11:44:19.900Z,0
2023-03-15T11:59:22.141Z,0
2023-03-15T12:14:24.401Z,0
2023-03-15T12:29:26.618Z,0
2023-03-15T12:44:29.013Z,0
2023-03-15T12:59:31.251Z,0
2023-03-15T13:14:33.538Z,0
2023-03-15T13:29:35.735Z,0
2023-03-15T13:44:37.955Z,2.82499
2023-03-15T13:59:40.973Z,36.72489
2023-03-15T14:14:43.270Z,198.69109
2023-03-15T14:29:45.532Z,524.50677
2023-03-15T14:44:47.844Z,1002.87207
2023-03-15T14:59:50.066Z,1694.05334
2023-03-15T15:14:52.303Z,2146.99365
2023-03-15T15:29:54.557Z,5194.21826
2023-03-15T15:44:56.789Z,3747.82251
2023-03-15T15:59:59.021Z,1783.51147
2023-03-15T16:15:01.471Z,4287.396
2023-03-15T16:30:03.674Z,6488.06445
2023-03-15T16:45:05.941Z,7705.63574
2023-03-15T17:00:08.174Z,3443.66504
2023-03-15T17:15:10.463Z,5200.81006
2023-03-15T17:30:12.985Z,9491.97266
2023-03-15T17:45:15.435Z,9479.73047
2023-03-15T18:00:17.720Z,10502.37793
2023-03-15T18:15:19.934Z,5738.5
2023-03-15T18:30:22.212Z,6676.39697
2023-03-15T18:45:24.744Z,6588.82227
2023-03-15T19:00:27.106Z,7484.34473
2023-03-15T19:15:29.378Z,3924.85522
2023-03-15T19:30:31.694Z,2475.63452
2023-03-15T19:45:33.983Z,2676.20898
2023-03-15T20:00:36.385Z,2755.30859
2023-03-15T20:15:38.757Z,2869.25
2023-03-15T20:30:43.241Z,3571.7312
2023-03-15T20:45:46.538Z,5255.42627
2023-03-15T21:00:48.956Z,2693.15894
2023-03-15T21:15:51.245Z,4205.47119
2023-03-15T21:30:53.534Z,3745.93896
2023-03-15T21:45:56.017Z,11157.77539
2023-03-15T22:00:58.451Z,4692.31152
2023-03-15T22:16:00.804Z,5146.19336
2023-03-15T22:31:03.119Z,10480.71973
2023-03-15T22:46:05.464Z,11196.38379
2023-03-15T23:01:07.866Z,12489.28906
2023-03-15T23:16:10.174Z,12195.48926
2023-03-15T23:31:12.516Z,10734.96875
2023-03-15T23:46:14.867Z,5476.71729
